sensor_id;sensor_type;location;lat;lon;timestamp;pressure;altitude;pressure_sealevel;temperature;humidity
67842;BME280;54642;59.126;37.876;2023-10-08T00:00:44;96134.03;;;2.29;82.08
67842;BME280;54642;59.126;37.876;2023-10-08T00:03:16;96150.88;;;2.35;82.05
67842;BME280;54642;59.126;37.876;2023-10-08T00:05:43;96131.63;;;2.24;82.02
67842;BME280;54642;59.126;37.876;2023-10-08T00:08:08;96143.03;;;2.39;81.91
67842;BME280;54642;59.126;37.876;2023-10-08T00:10:36;96143.22;;;2.35;81.97
67842;BME280;54642;59.126;37.876;2023-10-08T00:13:04;96112.31;;;2.17;81.86
67842;BME280;54642;59.126;37.876;2023-10-08T00:15:33;96133.31;;;2.25;82.18
67842;BME280;54642;59.126;37.876;2023-10-08T00:18:03;96138.16;;;2.33;81.89
67842;BME280;54642;59.126;37.876;2023-10-08T00:20:32;96136.53;;;2.31;82.09
67842;BME280;54642;59.126;37.876;2023-10-08T00:23:08;96118.19;;;2.19;81.82
67842;BME280;54642;59.126;37.876;2023-10-08T00:25:35;96112.97;;;2.22;81.97
67842;BME280;54642;59.126;37.876;2023-10-08T00:28:09;96126.16;;;2.35;81.90
67842;BME280;54642;59.126;37.876;2023-10-08T00:30:38;96135.25;;;2.42;81.71
67842;BME280;54642;59.126;37.876;2023-10-08T00:33:04;96116.41;;;2.21;81.68
67842;BME280;54642;59.126;37.876;2023-10-08T00:35:39;96125.44;;;2.32;81.98
67842;BME280;54642;59.126;37.876;2023-10-08T00:38:08;96105.31;;;2.22;81.78
67842;BME280;54642;59.126;37.876;2023-10-08T00:40:43;96102.03;;;2.19;81.89
67842;BME280;54642;59.126;37.876;2023-10-08T00:43:34;96131.13;;;2.40;81.80
67842;BME280;54642;59.126;37.876;2023-10-08T00:46:04;96111.94;;;2.28;82.19
67842;BME280;54642;59.126;37.876;2023-10-08T00:48:53;96116.88;;;2.33;81.91
67842;BME280;54642;59.126;37.876;2023-10-08T00:51:23;96114.34;;;2.33;81.99
67842;BME280;54642;59.126;37.876;2023-10-08T00:54:00;96118.34;;;2.40;81.84
67842;BME280;54642;59.126;37.876;2023-10-08T00:56:33;96126.53;;;2.48;81.79
67842;BME280;54642;59.126;37.876;2023-10-08T00:59:18;96124.16;;;2.43;81.74
67842;BME280;54642;59.126;37.876;2023-10-08T01:01:48;96118.34;;;2.40;81.85
67842;BME280;54642;59.126;37.876;2023-10-08T01:04:21;96125.00;;;2.44;82.04
67842;BME280;54642;59.126;37.876;2023-10-08T01:06:53;96104.03;;;2.34;81.78
67842;BME280;54642;59.126;37.876;2023-10-08T01:09:22;96099.88;;;2.32;81.75
67842;BME280;54642;59.126;37.876;2023-10-08T01:12:20;96130.16;;;2.42;81.65
67842;BME280;54642;59.126;37.876;2023-10-08T01:14:58;96107.66;;;2.28;81.74
67842;BME280;54642;59.126;37.876;2023-10-08T01:17:33;96127.09;;;2.33;81.90
67842;BME280;54642;59.126;37.876;2023-10-08T01:20:11;96107.66;;;2.28;81.84
67842;BME280;54642;59.126;37.876;2023-10-08T01:23:02;96117.72;;;2.33;81.77
67842;BME280;54642;59.126;37.876;2023-10-08T01:25:42;96111.19;;;2.24;81.87
67842;BME280;54642;59.126;37.876;2023-10-08T01:28:09;96091.09;;;2.15;81.78
67842;BME280;54642;59.126;37.876;2023-10-08T01:30:44;96114.59;;;2.25;81.73
67842;BME280;54642;59.126;37.876;2023-10-08T01:33:14;96115.09;;;2.35;81.89
67842;BME280;54642;59.126;37.876;2023-10-08T01:35:44;96122.81;;;2.33;81.82
67842;BME280;54642;59.126;37.876;2023-10-08T01:38:10;96099.50;;;2.19;81.90
67842;BME280;54642;59.126;37.876;2023-10-08T01:40:48;96114.44;;;2.29;81.83
67842;BME280;54642;59.126;37.876;2023-10-08T01:43:16;96103.50;;;2.26;81.79
67842;BME280;54642;59.126;37.876;2023-10-08T01:45:44;96106.88;;;2.26;81.83
67842;BME280;54642;59.126;37.876;2023-10-08T01:48:14;96064.13;;;2.08;81.87
67842;BME280;54642;59.126;37.876;2023-10-08T01:50:57;96119.22;;;2.39;81.93
67842;BME280;54642;59.126;37.876;2023-10-08T01:53:30;96094.00;;;2.29;81.83
67842;BME280;54642;59.126;37.876;2023-10-08T01:55:57;96115.09;;;2.35;81.92
67842;BME280;54642;59.126;37.876;2023-10-08T01:58:23;96083.34;;;2.18;81.87
67842;BME280;54642;59.126;37.876;2023-10-08T02:00:49;96109.94;;;2.36;81.95
67842;BME280;54642;59.126;37.876;2023-10-08T02:03:18;96116.88;;;2.33;81.96
67842;BME280;54642;59.126;37.876;2023-10-08T02:05:45;96105.75;;;2.34;81.66
67842;BME280;54642;59.126;37.876;2023-10-08T02:08:12;96067.34;;;2.13;81.80
67842;BME280;54642;59.126;37.876;2023-10-08T02:10:39;96094.88;;;2.28;81.69
67842;BME280;54642;59.126;37.876;2023-10-08T02:13:10;96089.22;;;2.20;81.75
67842;BME280;54642;59.126;37.876;2023-10-08T02:15:43;96118.38;;;2.38;82.06
67842;BME280;54642;59.126;37.876;2023-10-08T02:18:10;96105.75;;;2.34;81.95
67842;BME280;54642;59.126;37.876;2023-10-08T02:20:36;96094.06;;;2.28;82.13
67842;BME280;54642;59.126;37.876;2023-10-08T02:23:02;96110.88;;;2.34;81.79
67842;BME280;54642;59.126;37.876;2023-10-08T02:25:38;96087.53;;;2.19;81.91
67842;BME280;54642;59.126;37.876;2023-10-08T02:28:09;96120.31;;;2.32;82.06
67842;BME280;54642;59.126;37.876;2023-10-08T02:30:38;96118.63;;;2.31;81.94
67842;BME280;54642;59.126;37.876;2023-10-08T02:33:08;96102.72;;;2.24;81.84
67842;BME280;54642;59.126;37.876;2023-10-08T02:35:44;96118.78;;;2.27;81.92
67842;BME280;54642;59.126;37.876;2023-10-08T02:38:12;96104.53;;;2.20;82.02
67842;BME280;54642;59.126;37.876;2023-10-08T02:40:47;96095.19;;;2.19;81.98
67842;BME280;54642;59.126;37.876;2023-10-08T02:43:15;96103.59;;;2.23;81.91
67842;BME280;54642;59.126;37.876;2023-10-08T02:45:42;96113.47;;;2.32;82.06
67842;BME280;54642;59.126;37.876;2023-10-08T02:48:13;96111.09;;;2.27;82.00
67842;BME280;54642;59.126;37.876;2023-10-08T02:50:39;96120.28;;;2.33;82.16
67842;BME280;54642;59.126;37.876;2023-10-08T02:53:06;96119.25;;;2.37;82.01
67842;BME280;54642;59.126;37.876;2023-10-08T02:55:43;96090.88;;;2.21;81.98
67842;BME280;54642;59.126;37.876;2023-10-08T02:58:16;96117.75;;;2.32;81.78
67842;BME280;54642;59.126;37.876;2023-10-08T03:00:46;96110.88;;;2.34;82.00
67842;BME280;54642;59.126;37.876;2023-10-08T03:03:16;96109.09;;;2.36;81.99
67842;BME280;54642;59.126;37.876;2023-10-08T03:05:47;96111.66;;;2.36;81.83
67842;BME280;54642;59.126;37.876;2023-10-08T03:08:14;96103.09;;;2.37;82.03
67842;BME280;54642;59.126;37.876;2023-10-08T03:10:45;96103.22;;;2.34;81.92
67842;BME280;54642;59.126;37.876;2023-10-08T03:13:11;96103.00;;;2.40;81.87
67842;BME280;54642;59.126;37.876;2023-10-08T03:15:40;96112.41;;;2.38;82.08
67842;BME280;54642;59.126;37.876;2023-10-08T03:18:13;96100.56;;;2.37;81.90
67842;BME280;54642;59.126;37.876;2023-10-08T03:20:42;96088.88;;;2.29;82.02
67842;BME280;54642;59.126;37.876;2023-10-08T03:23:13;96104.59;;;2.42;81.90
67842;BME280;54642;59.126;37.876;2023-10-08T03:26:00;96109.88;;;2.38;81.79
67842;BME280;54642;59.126;37.876;2023-10-08T03:28:38;96111.41;;;2.43;81.68
67842;BME280;54642;59.126;37.876;2023-10-08T03:31:06;96109.88;;;2.38;81.95
67842;BME280;54642;59.126;37.876;2023-10-08T03:33:42;96107.31;;;2.38;81.95
67842;BME280;54642;59.126;37.876;2023-10-08T03:36:09;96118.19;;;2.43;81.79
67842;BME280;54642;59.126;37.876;2023-10-08T03:38:55;96114.97;;;2.38;81.84
67842;BME280;54642;59.126;37.876;2023-10-08T03:41:23;96118.44;;;2.37;82.06
67842;BME280;54642;59.126;37.876;2023-10-08T03:43:56;96091.50;;;2.28;81.93
67842;BME280;54642;59.126;37.876;2023-10-08T03:46:33;96114.78;;;2.44;81.85
67842;BME280;54642;59.126;37.876;2023-10-08T03:49:06;96126.44;;;2.51;81.71
67842;BME280;54642;59.126;37.876;2023-10-08T03:51:41;96110.44;;;2.46;81.75
67842;BME280;54642;59.126;37.876;2023-10-08T03:54:07;96094.38;;;2.42;81.47
67842;BME280;54642;59.126;37.876;2023-10-08T03:56:43;96120.22;;;2.58;81.58
67842;BME280;54642;59.126;37.876;2023-10-08T03:59:15;96101.09;;;2.45;81.55
67842;BME280;54642;59.126;37.876;2023-10-08T04:02:01;96089.94;;;2.47;81.69
67842;BME280;54642;59.126;37.876;2023-10-08T04:04:43;96103.34;;;2.54;81.79
67842;BME280;54642;59.126;37.876;2023-10-08T04:07:20;96095.00;;;2.49;81.82
67842;BME280;54642;59.126;37.876;2023-10-08T04:09:50;96091.69;;;2.47;81.71
67842;BME280;54642;59.126;37.876;2023-10-08T04:12:30;96112.88;;;2.49;81.59
67842;BME280;54642;59.126;37.876;2023-10-08T04:15:04;96115.94;;;2.59;81.29
67842;BME280;54642;59.126;37.876;2023-10-08T04:17:35;96115.22;;;2.55;81.60
67842;BME280;54642;59.126;37.876;2023-10-08T04:20:19;96089.31;;;2.41;81.57
67842;BME280;54642;59.126;37.876;2023-10-08T04:23:09;96115.09;;;2.58;81.72
67842;BME280;54642;59.126;37.876;2023-10-08T04:25:44;96124.44;;;2.59;81.57
67842;BME280;54642;59.126;37.876;2023-10-08T04:28:10;96111.94;;;2.52;81.76
67842;BME280;54642;59.126;37.876;2023-10-08T04:30:39;96099.66;;;2.38;81.87
67842;BME280;54642;59.126;37.876;2023-10-08T04:33:08;96090.34;;;2.37;81.96
67842;BME280;54642;59.126;37.876;2023-10-08T04:35:38;96113.66;;;2.51;81.85
67842;BME280;54642;59.126;37.876;2023-10-08T04:38:27;96135.56;;;2.58;81.85
67842;BME280;54642;59.126;37.876;2023-10-08T04:41:02;96128.59;;;2.62;81.64
67842;BME280;54642;59.126;37.876;2023-10-08T04:43:34;96107.72;;;2.51;81.63
67842;BME280;54642;59.126;37.876;2023-10-08T04:46:04;96124.50;;;2.58;81.67
67842;BME280;54642;59.126;37.876;2023-10-08T04:48:43;96125.38;;;2.57;81.55
67842;BME280;54642;59.126;37.876;2023-10-08T04:51:09;96110.34;;;2.49;81.58
67842;BME280;54642;59.126;37.876;2023-10-08T04:53:39;96135.31;;;2.64;81.73
67842;BME280;54642;59.126;37.876;2023-10-08T04:56:12;96136.22;;;2.63;81.61
67842;BME280;54642;59.126;37.876;2023-10-08T04:58:45;96137.94;;;2.63;81.69
67842;BME280;54642;59.126;37.876;2023-10-08T05:01:16;96131.88;;;2.65;81.31
67842;BME280;54642;59.126;37.876;2023-10-08T05:03:48;96137.88;;;2.64;81.25
67842;BME280;54642;59.126;37.876;2023-10-08T05:06:34;96118.59;;;2.56;81.65
67842;BME280;54642;59.126;37.876;2023-10-08T05:09:11;96129.44;;;2.62;81.42
67842;BME280;54642;59.126;37.876;2023-10-08T05:11:47;96092.41;;;2.51;81.41
67842;BME280;54642;59.126;37.876;2023-10-08T05:14:21;96127.97;;;2.79;81.74
67842;BME280;54642;59.126;37.876;2023-10-08T05:16:56;96113.13;;;2.66;81.41
67842;BME280;54642;59.126;37.876;2023-10-08T05:19:48;96097.25;;;2.57;81.49
67842;BME280;54642;59.126;37.876;2023-10-08T05:22:33;96126.31;;;2.78;81.26
67842;BME280;54642;59.126;37.876;2023-10-08T05:24:59;96116.91;;;2.78;81.22
67842;BME280;54642;59.126;37.876;2023-10-08T05:27:43;96144.53;;;2.92;81.48
67842;BME280;54642;59.126;37.876;2023-10-08T05:30:13;96118.72;;;2.76;81.11
67842;BME280;54642;59.126;37.876;2023-10-08T05:32:52;96155.50;;;2.96;81.50
67842;BME280;54642;59.126;37.876;2023-10-08T05:35:37;96158.00;;;2.97;81.21
67842;BME280;54642;59.126;37.876;2023-10-08T05:38:10;96110.41;;;2.70;81.36
67842;BME280;54642;59.126;37.876;2023-10-08T05:40:43;96154.88;;;2.89;81.02
67842;BME280;54642;59.126;37.876;2023-10-08T05:43:28;96156.00;;;2.82;81.40
67842;BME280;54642;59.126;37.876;2023-10-08T05:48:45;96141.81;;;2.73;81.49
67842;BME280;54642;59.126;37.876;2023-10-08T05:51:16;96155.94;;;2.83;81.21
67842;BME280;54642;59.126;37.876;2023-10-08T05:53:59;96133.28;;;2.74;81.34
67842;BME280;54642;59.126;37.876;2023-10-08T05:56:32;96117.44;;;2.64;81.19
67842;BME280;54642;59.126;37.876;2023-10-08T05:59:17;96172.44;;;2.98;81.14
67842;BME280;54642;59.126;37.876;2023-10-08T06:01:52;96154.41;;;3.01;80.92
67842;BME280;54642;59.126;37.876;2023-10-08T06:04:31;96167.78;;;3.10;81.04
67842;BME280;54642;59.126;37.876;2023-10-08T06:07:16;96169.75;;;3.01;nan
67842;BME280;54642;59.126;37.876;2023-10-08T06:09:58;96163.09;;;2.97;81.10
67842;BME280;54642;59.126;37.876;2023-10-08T06:12:30;96161.94;;;3.06;81.22
67842;BME280;54642;59.126;37.876;2023-10-08T06:14:58;96168.94;;;3.01;81.01
67842;BME280;54642;59.126;37.876;2023-10-08T06:17:34;96176.38;;;3.07;81.05
67842;BME280;54642;59.126;37.876;2023-10-08T06:20:21;96175.50;;;3.08;81.14
67842;BME280;54642;59.126;37.876;2023-10-08T06:22:53;96176.06;;;3.15;81.35
67842;BME280;54642;59.126;37.876;2023-10-08T06:25:24;96136.88;;;2.92;81.23
67842;BME280;54642;59.126;37.876;2023-10-08T06:27:50;96179.28;;;3.20;81.05
67842;BME280;54642;59.126;37.876;2023-10-08T06:30:23;96174.19;;;3.20;81.00
67842;BME280;54642;59.126;37.876;2023-10-08T06:32:55;96159.03;;;3.15;80.90
67842;BME280;54642;59.126;37.876;2023-10-08T06:35:21;96190.03;;;3.30;81.05
67842;BME280;54642;59.126;37.876;2023-10-08T06:37:53;96187.28;;;3.34;80.88
67842;BME280;54642;59.126;37.876;2023-10-08T06:40:25;96164.03;;;3.18;80.93
67842;BME280;54642;59.126;37.876;2023-10-08T06:43:06;96198.47;;;3.32;80.94
67842;BME280;54642;59.126;37.876;2023-10-08T06:46:07;96178.25;;;3.26;80.90
67842;BME280;54642;59.126;37.876;2023-10-08T06:48:33;96206.09;;;3.33;80.85
67842;BME280;54642;59.126;37.876;2023-10-08T06:51:00;96202.72;;;3.33;80.79
67842;BME280;54642;59.126;37.876;2023-10-08T06:53:36;96177.28;;;3.28;80.67
67842;BME280;54642;59.126;37.876;2023-10-08T06:56:04;96173.13;;;3.26;80.67
67842;BME280;54642;59.126;37.876;2023-10-08T06:58:30;96197.66;;;3.31;80.80
67842;BME280;54642;59.126;37.876;2023-10-08T07:00:59;96186.91;;;3.21;80.84
67842;BME280;54642;59.126;37.876;2023-10-08T07:03:31;96211.94;;;3.37;81.00
67842;BME280;54642;59.126;37.876;2023-10-08T07:05:59;96212.09;;;3.32;80.74
67842;BME280;54642;59.126;37.876;2023-10-08T07:08:29;96179.53;;;3.14;80.74
67842;BME280;54642;59.126;37.876;2023-10-08T07:11:01;96177.59;;;3.20;80.74
67842;BME280;54642;59.126;37.876;2023-10-08T07:13:27;96186.69;;;3.28;80.79
67842;BME280;54642;59.126;37.876;2023-10-08T07:15:55;96196.78;;;3.31;80.52
67842;BME280;54642;59.126;37.876;2023-10-08T07:18:22;96189.38;;;3.24;80.90
67842;BME280;54642;59.126;37.876;2023-10-08T07:20:54;96213.16;;;3.49;81.01
67842;BME280;54642;59.126;37.876;2023-10-08T07:23:23;96203.84;;;3.48;81.03
67842;BME280;54642;59.126;37.876;2023-10-08T07:25:59;96221.56;;;3.52;80.95
67842;BME280;54642;59.126;37.876;2023-10-08T07:28:50;96194.63;;;3.43;80.71
67842;BME280;54642;59.126;37.876;2023-10-08T07:31:24;96192.13;;;3.42;80.61
67842;BME280;54642;59.126;37.876;2023-10-08T07:33:59;96209.19;;;3.41;80.56
67842;BME280;54642;59.126;37.876;2023-10-08T07:36:42;96222.63;;;3.47;80.82
67842;BME280;54642;59.126;37.876;2023-10-08T07:39:09;96230.09;;;3.53;80.63
67842;BME280;54642;59.126;37.876;2023-10-08T07:41:49;96222.53;;;3.50;80.90
67842;BME280;54642;59.126;37.876;2023-10-08T07:44:15;96227.41;;;3.56;80.76
67842;BME280;54642;59.126;37.876;2023-10-08T07:46:41;96224.31;;;3.48;80.68
67842;BME280;54642;59.126;37.876;2023-10-08T07:49:07;96212.66;;;3.40;80.61
67842;BME280;54642;59.126;37.876;2023-10-08T07:51:40;96243.56;;;3.58;80.61
67842;BME280;54642;59.126;37.876;2023-10-08T07:54:06;96208.59;;;3.35;80.52
67842;BME280;54642;59.126;37.876;2023-10-08T07:56:35;96224.44;;;3.44;80.73
67842;BME280;54642;59.126;37.876;2023-10-08T07:59:03;96248.84;;;3.53;80.77
67842;BME280;54642;59.126;37.876;2023-10-08T08:01:34;96242.75;;;3.56;80.56
67842;BME280;54642;59.126;37.876;2023-10-08T08:04:00;96237.78;;;3.53;80.71
67842;BME280;54642;59.126;37.876;2023-10-08T08:06:26;96250.28;;;3.60;80.57
67842;BME280;54642;59.126;37.876;2023-10-08T08:08:52;96265.22;;;3.71;80.75
67842;BME280;54642;59.126;37.876;2023-10-08T08:11:18;96242.28;;;3.68;80.74
67842;BME280;54642;59.126;37.876;2023-10-08T08:13:45;96260.66;;;3.79;80.78
67842;BME280;54642;59.126;37.876;2023-10-08T08:16:11;96238.59;;;3.75;80.77
67842;BME280;54642;59.126;37.876;2023-10-08T08:18:48;96262.91;;;3.87;80.58
67842;BME280;54642;59.126;37.876;2023-10-08T08:21:15;96274.69;;;3.91;80.53
67842;BME280;54642;59.126;37.876;2023-10-08T08:23:46;96262.66;;;3.93;80.36
67842;BME280;54642;59.126;37.876;2023-10-08T08:26:23;96284.56;;;4.00;80.41
67842;BME280;54642;59.126;37.876;2023-10-08T08:28:59;96296.50;;;4.01;80.47
67842;BME280;54642;59.126;37.876;2023-10-08T08:31:30;96287.72;;;4.07;80.68
67842;BME280;54642;59.126;37.876;2023-10-08T08:34:02;96256.81;;;3.90;80.35
67842;BME280;54642;59.126;37.876;2023-10-08T08:36:30;96293.63;;;4.09;80.31
67842;BME280;54642;59.126;37.876;2023-10-08T08:38:57;96281.94;;;4.02;80.55
67842;BME280;54642;59.126;37.876;2023-10-08T08:41:26;96291.91;;;4.10;80.71
67842;BME280;54642;59.126;37.876;2023-10-08T08:43:53;96305.66;;;4.07;80.75
67842;BME280;54642;59.126;37.876;2023-10-08T08:46:30;96315.16;;;4.05;80.57
67842;BME280;54642;59.126;37.876;2023-10-08T08:49:01;96313.47;;;4.04;80.71
67842;BME280;54642;59.126;37.876;2023-10-08T08:51:29;96325.34;;;4.07;80.58
67842;BME280;54642;59.126;37.876;2023-10-08T08:53:55;96316.03;;;4.04;80.68
67842;BME280;54642;59.126;37.876;2023-10-08T08:56:22;96313.06;;;3.93;80.59
67842;BME280;54642;59.126;37.876;2023-10-08T08:58:49;96335.69;;;4.04;80.42
67842;BME280;54642;59.126;37.876;2023-10-08T09:01:15;96308.03;;;3.90;80.73
67842;BME280;54642;59.126;37.876;2023-10-08T09:03:43;96329.34;;;3.92;80.78
67842;BME280;54642;59.126;37.876;2023-10-08T09:06:11;96347.03;;;3.98;80.84
67842;BME280;54642;59.126;37.876;2023-10-08T09:08:37;96322.59;;;3.89;80.93
67842;BME280;54642;59.126;37.876;2023-10-08T09:11:08;96335.91;;;3.99;80.56
67842;BME280;54642;59.126;37.876;2023-10-08T09:13:34;96345.78;;;4.08;80.84
67842;BME280;54642;59.126;37.876;2023-10-08T09:16:11;96361.66;;;4.16;80.75
67842;BME280;54642;59.126;37.876;2023-10-08T09:18:37;96325.88;;;3.93;80.70
67842;BME280;54642;59.126;37.876;2023-10-08T09:21:14;96358.41;;;4.13;80.75
67842;BME280;54642;59.126;37.876;2023-10-08T09:23:42;96325.75;;;3.96;80.79
67842;BME280;54642;59.126;37.876;2023-10-08T09:26:10;96357.50;;;4.14;80.69
67842;BME280;54642;59.126;37.876;2023-10-08T09:28:37;96353.41;;;4.10;80.79
67842;BME280;54642;59.126;37.876;2023-10-08T09:31:05;96387.84;;;4.25;80.42
67842;BME280;54642;59.126;37.876;2023-10-08T09:33:32;96367.22;;;4.06;80.48
67842;BME280;54642;59.126;37.876;2023-10-08T09:35:59;96363.00;;;4.05;80.73
67842;BME280;54642;59.126;37.876;2023-10-08T09:38:28;96377.50;;;4.04;80.75
67842;BME280;54642;59.126;37.876;2023-10-08T09:40:57;96397.03;;;4.08;80.88
67842;BME280;54642;59.126;37.876;2023-10-08T09:43:24;96408.09;;;4.09;80.89
67842;BME280;54642;59.126;37.876;2023-10-08T09:46:08;96393.59;;;4.08;80.99
67842;BME280;54642;59.126;37.876;2023-10-08T09:48:38;96373.75;;;3.91;80.83
67842;BME280;54642;59.126;37.876;2023-10-08T09:51:09;96395.59;;;4.01;81.04
67842;BME280;54642;59.126;37.876;2023-10-08T09:53:58;96396.72;;;3.94;80.86
67842;BME280;54642;59.126;37.876;2023-10-08T09:56:29;96428.53;;;4.10;81.05
67842;BME280;54642;59.126;37.876;2023-10-08T09:58:55;96434.50;;;4.11;81.01
67842;BME280;54642;59.126;37.876;2023-10-08T10:01:21;96425.22;;;4.08;81.11
67842;BME280;54642;59.126;37.876;2023-10-08T10:03:48;96416.13;;;3.99;81.18
67842;BME280;54642;59.126;37.876;2023-10-08T10:06:15;96413.63;;;3.98;81.21
67842;BME280;54642;59.126;37.876;2023-10-08T10:08:44;96430.75;;;4.19;81.24
67842;BME280;54642;59.126;37.876;2023-10-08T10:11:11;96418.41;;;4.07;81.20
67842;BME280;54642;59.126;37.876;2023-10-08T10:13:45;96439.16;;;4.23;81.10
67842;BME280;54642;59.126;37.876;2023-10-08T10:16:19;96441.38;;;4.32;80.98
67842;BME280;54642;59.126;37.876;2023-10-08T10:18:50;96431.97;;;4.33;80.66
67842;BME280;54642;59.126;37.876;2023-10-08T10:21:30;96454.38;;;4.50;80.46
67842;BME280;54642;59.126;37.876;2023-10-08T10:23:57;96438.44;;;4.42;80.59
67842;BME280;54642;59.126;37.876;2023-10-08T10:26:29;96470.22;;;4.59;80.47
67842;BME280;54642;59.126;37.876;2023-10-08T10:31:44;96464.16;;;4.62;80.41
67842;BME280;54642;59.126;37.876;2023-10-08T10:34:14;96440.84;;;4.46;80.42
67842;BME280;54642;59.126;37.876;2023-10-08T10:36:47;96462.03;;;4.51;80.53
67842;BME280;54642;59.126;37.876;2023-10-08T10:39:21;96469.47;;;4.57;80.64
67842;BME280;54642;59.126;37.876;2023-10-08T10:41:58;96434.41;;;4.36;80.44
67842;BME280;54642;59.126;37.876;2023-10-08T10:44:29;96453.59;;;4.48;80.54
67842;BME280;54642;59.126;37.876;2023-10-08T10:46:58;96483.13;;;4.58;80.76
67842;BME280;54642;59.126;37.876;2023-10-08T10:49:44;96488.31;;;4.56;80.60
67842;BME280;54642;59.126;37.876;2023-10-08T10:52:27;96491.88;;;4.52;80.55
67842;BME280;54642;59.126;37.876;2023-10-08T10:55:11;96472.63;;;4.42;80.65
67842;BME280;54642;59.126;37.876;2023-10-08T10:57:46;96502.53;;;4.65;80.72
67842;BME280;54642;59.126;37.876;2023-10-08T11:00:22;96479.66;;;4.59;80.83
67842;BME280;54642;59.126;37.876;2023-10-08T11:03:02;96494.75;;;4.67;80.44
67842;BME280;54642;59.126;37.876;2023-10-08T11:05:49;96464.94;;;4.42;80.70
67842;BME280;54642;59.126;37.876;2023-10-08T11:08:18;96512.84;;;4.64;80.90
67842;BME280;54642;59.126;37.876;2023-10-08T11:10:44;96502.13;;;4.52;80.72
67842;BME280;54642;59.126;37.876;2023-10-08T11:13:20;96513.00;;;4.59;80.98
67842;BME280;54642;59.126;37.876;2023-10-08T11:15:50;96514.28;;;4.71;80.84
67842;BME280;54642;59.126;37.876;2023-10-08T11:18:19;96520.19;;;4.73;80.69
67842;BME280;54642;59.126;37.876;2023-10-08T11:20:47;96479.84;;;4.54;80.64
67842;BME280;54642;59.126;37.876;2023-10-08T11:23:41;96522.16;;;4.88;80.64
67842;BME280;54642;59.126;37.876;2023-10-08T11:26:07;96532.47;;;4.87;80.46
67842;BME280;54642;59.126;37.876;2023-10-08T11:28:35;96536.75;;;4.86;80.28
67842;BME280;54642;59.126;37.876;2023-10-08T11:31:03;96537.00;;;4.80;80.79
67842;BME280;54642;59.126;37.876;2023-10-08T11:33:40;96537.78;;;4.82;80.62
67842;BME280;54642;59.126;37.876;2023-10-08T11:36:09;96541.09;;;4.84;80.72
67842;BME280;54642;59.126;37.876;2023-10-08T11:38:45;96533.72;;;4.76;80.56
67842;BME280;54642;59.126;37.876;2023-10-08T11:41:17;96532.94;;;4.74;80.73
67842;BME280;54642;59.126;37.876;2023-10-08T11:43:56;96556.16;;;4.93;80.81
67842;BME280;54642;59.126;37.876;2023-10-08T11:46:27;96554.28;;;4.97;80.65
67842;BME280;54642;59.126;37.876;2023-10-08T11:49:04;96547.66;;;4.91;80.53
67842;BME280;54642;59.126;37.876;2023-10-08T11:51:32;96563.06;;;4.91;80.41
67842;BME280;54642;59.126;37.876;2023-10-08T11:54:02;96550.50;;;4.85;80.62
67842;BME280;54642;59.126;37.876;2023-10-08T11:56:32;96570.66;;;4.94;80.42
67842;BME280;54642;59.126;37.876;2023-10-08T11:59:01;96574.97;;;4.94;80.61
67842;BME280;54642;59.126;37.876;2023-10-08T12:01:31;96552.38;;;4.80;80.50
67842;BME280;54642;59.126;37.876;2023-10-08T12:04:01;96561.63;;;4.84;80.40
67842;BME280;54642;59.126;37.876;2023-10-08T12:06:27;96585.94;;;4.97;80.42
67842;BME280;54642;59.126;37.876;2023-10-08T12:08:56;96587.72;;;4.95;80.82
67842;BME280;54642;59.126;37.876;2023-10-08T12:11:27;96555.78;;;4.81;80.64
67842;BME280;54642;59.126;37.876;2023-10-08T12:13:59;96589.28;;;5.00;80.42
67842;BME280;54642;59.126;37.876;2023-10-08T12:16:26;96584.31;;;4.95;80.37
67842;BME280;54642;59.126;37.876;2023-10-08T12:18:56;96596.00;;;5.02;80.44
67842;BME280;54642;59.126;37.876;2023-10-08T12:21:28;96615.56;;;5.06;80.32
67842;BME280;54642;59.126;37.876;2023-10-08T12:23:58;96607.13;;;5.03;80.46
67842;BME280;54642;59.126;37.876;2023-10-08T12:26:24;96590.34;;;4.94;80.14
67842;BME280;54642;59.126;37.876;2023-10-08T12:28:51;96611.25;;;5.07;80.17
67842;BME280;54642;59.126;37.876;2023-10-08T12:31:20;96592.97;;;4.92;80.10
67842;BME280;54642;59.126;37.876;2023-10-08T12:33:51;96618.44;;;4.97;80.38
67842;BME280;54642;59.126;37.876;2023-10-08T12:36:23;96599.19;;;4.87;80.58
67842;BME280;54642;59.126;37.876;2023-10-08T12:38:50;96637.94;;;5.03;80.69
67842;BME280;54642;59.126;37.876;2023-10-08T12:41:26;96631.06;;;5.03;80.38
67842;BME280;54642;59.126;37.876;2023-10-08T12:43:52;96639.47;;;5.07;80.61
67842;BME280;54642;59.126;37.876;2023-10-08T12:46:20;96636.09;;;5.06;80.70
67842;BME280;54642;59.126;37.876;2023-10-08T12:48:56;96638.09;;;4.98;80.52
67842;BME280;54642;59.126;37.876;2023-10-08T12:51:24;96648.34;;;4.98;80.58
67842;BME280;54642;59.126;37.876;2023-10-08T12:53:51;96653.53;;;4.96;80.60
67842;BME280;54642;59.126;37.876;2023-10-08T12:56:25;96612.28;;;4.79;80.77
67842;BME280;54642;59.126;37.876;2023-10-08T12:59:00;96629.91;;;4.88;80.55
67842;BME280;54642;59.126;37.876;2023-10-08T13:01:29;96634.13;;;4.89;80.53
67842;BME280;54642;59.126;37.876;2023-10-08T13:03:55;96634.44;;;4.82;80.56
67842;BME280;54642;59.126;37.876;2023-10-08T13:06:34;96637.72;;;4.85;80.53
67842;BME280;54642;59.126;37.876;2023-10-08T13:09:03;96662.47;;;4.86;80.56
67842;BME280;54642;59.126;37.876;2023-10-08T13:11:38;96649.00;;;4.81;80.51
67842;BME280;54642;59.126;37.876;2023-10-08T13:14:05;96682.59;;;4.97;80.60
67842;BME280;54642;59.126;37.876;2023-10-08T13:16:31;96684.38;;;4.95;80.49
67842;BME280;54642;59.126;37.876;2023-10-08T13:18:58;96675.06;;;4.92;80.63
67842;BME280;54642;59.126;37.876;2023-10-08T13:21:25;96687.81;;;4.95;80.54
67842;BME280;54642;59.126;37.876;2023-10-08T13:23:52;96689.84;;;4.86;80.49
67842;BME280;54642;59.126;37.876;2023-10-08T13:26:18;96711.00;;;4.92;80.72
67842;BME280;54642;59.126;37.876;2023-10-08T13:28:46;96698.38;;;4.86;80.71
67842;BME280;54642;59.126;37.876;2023-10-08T13:31:12;96710.38;;;4.86;80.66